sensor_id;sensor_type;location;lat;lon;timestamp;temperature;humidity
7476;DHT22;3779;49.216;8.650;2023-01-10T00:02:26;19.30;39.50
7476;DHT22;3779;49.216;8.650;2023-01-10T00:05:12;19.20;39.70
7476;DHT22;3779;49.216;8.650;2023-01-10T00:07:58;19.20;39.70
7476;DHT22;3779;49.216;8.650;2023-01-10T00:10:44;19.10;39.70
7476;DHT22;3779;49.216;8.650;2023-01-10T00:13:30;19.10;39.70
7476;DHT22;3779;49.216;8.650;2023-01-10T00:16:16;19.10;39.90
7476;DHT22;3779;49.216;8.650;2023-01-10T00:19:01;19.10;40.00
7476;DHT22;3779;49.216;8.650;2023-01-10T00:21:47;19.00;40.40
7476;DHT22;3779;49.216;8.650;2023-01-10T00:24:34;18.70;40.70
7476;DHT22;3779;49.216;8.650;2023-01-10T00:27:20;18.70;40.80
7476;DHT22;3779;49.216;8.650;2023-01-10T00:30:07;18.80;40.40
7476;DHT22;3779;49.216;8.650;2023-01-10T00:32:58;18.90;40.50
7476;DHT22;3779;49.216;8.650;2023-01-10T00:35:44;18.90;40.40
7476;DHT22;3779;49.216;8.650;2023-01-10T00:38:31;18.90;40.50
7476;DHT22;3779;49.216;8.650;2023-01-10T00:41:20;18.90;40.20
7476;DHT22;3779;49.216;8.650;2023-01-10T00:44:25;18.90;40.20
7476;DHT22;3779;49.216;8.650;2023-01-10T00:47:11;18.80;40.10
7476;DHT22;3779;49.216;8.650;2023-01-10T00:49:57;18.90;40.40
7476;DHT22;3779;49.216;8.650;2023-01-10T00:52:44;19.00;40.70
7476;DHT22;3779;49.216;8.650;2023-01-10T00:55:31;19.00;40.50
7476;DHT22;3779;49.216;8.650;2023-01-10T00:58:17;18.80;40.50
7476;DHT22;3779;49.216;8.650;2023-01-10T01:01:03;18.90;40.40
7476;DHT22;3779;49.216;8.650;2023-01-10T01:03:48;18.40;41.30
7476;DHT22;3779;49.216;8.650;2023-01-10T01:06:34;18.50;41.30
7476;DHT22;3779;49.216;8.650;2023-01-10T01:09:20;18.70;40.90
7476;DHT22;3779;49.216;8.650;2023-01-10T01:12:06;18.80;40.60
7476;DHT22;3779;49.216;8.650;2023-01-10T01:14:52;18.50;41.00
7476;DHT22;3779;49.216;8.650;2023-01-10T01:17:38;18.60;41.10
7476;DHT22;3779;49.216;8.650;2023-01-10T01:20:24;18.70;40.70
7476;DHT22;3779;49.216;8.650;2023-01-10T01:23:10;18.80;40.60
7476;DHT22;3779;49.216;8.650;2023-01-10T01:25:56;19.00;40.60
7476;DHT22;3779;49.216;8.650;2023-01-10T01:28:42;18.80;40.30
7476;DHT22;3779;49.216;8.650;2023-01-10T01:31:28;18.70;40.60
7476;DHT22;3779;49.216;8.650;2023-01-10T01:34:14;18.70;40.60
7476;DHT22;3779;49.216;8.650;2023-01-10T01:37:00;18.80;41.10
7476;DHT22;3779;49.216;8.650;2023-01-10T01:39:46;19.00;40.40
7476;DHT22;3779;49.216;8.650;2023-01-10T01:42:33;18.80;40.10
7476;DHT22;3779;49.216;8.650;2023-01-10T01:48:12;18.80;39.90
7476;DHT22;3779;49.216;8.650;2023-01-10T01:51:12;18.80;40.10
7476;DHT22;3779;49.216;8.650;2023-01-10T01:54:04;18.80;40.10
7476;DHT22;3779;49.216;8.650;2023-01-10T01:56:56;18.80;40.00
7476;DHT22;3779;49.216;8.650;2023-01-10T01:59:46;18.80;40.10
7476;DHT22;3779;49.216;8.650;2023-01-10T02:02:43;18.80;40.70
7476;DHT22;3779;49.216;8.650;2023-01-10T02:05:33;18.80;40.50
7476;DHT22;3779;49.216;8.650;2023-01-10T02:08:20;18.60;40.40
7476;DHT22;3779;49.216;8.650;2023-01-10T02:11:09;18.70;40.30
7476;DHT22;3779;49.216;8.650;2023-01-10T02:13:57;18.70;40.30
7476;DHT22;3779;49.216;8.650;2023-01-10T02:16:43;18.70;40.20
7476;DHT22;3779;49.216;8.650;2023-01-10T02:19:54;18.70;40.20
7476;DHT22;3779;49.216;8.650;2023-01-10T02:29:11;18.70;39.90
7476;DHT22;3779;49.216;8.650;2023-01-10T02:44:33;18.70;39.40
7476;DHT22;3779;49.216;8.650;2023-01-10T02:47:20;18.70;39.40
7476;DHT22;3779;49.216;8.650;2023-01-10T02:50:27;18.70;39.00
7476;DHT22;3779;49.216;8.650;2023-01-10T02:53:27;18.70;39.00
7476;DHT22;3779;49.216;8.650;2023-01-10T03:11:38;18.70;38.50
7476;DHT22;3779;49.216;8.650;2023-01-10T03:14:28;18.80;38.40
7476;DHT22;3779;49.216;8.650;2023-01-10T03:17:16;18.80;38.50
7476;DHT22;3779;49.216;8.650;2023-01-10T03:20:05;18.60;38.40
7476;DHT22;3779;49.216;8.650;2023-01-10T03:22:54;18.60;38.70
7476;DHT22;3779;49.216;8.650;2023-01-10T03:25:41;18.70;42.20
7476;DHT22;3779;49.216;8.650;2023-01-10T03:28:32;18.80;42.50
7476;DHT22;3779;49.216;8.650;2023-01-10T03:31:29;19.00;42.30
7476;DHT22;3779;49.216;8.650;2023-01-10T03:34:16;19.20;41.90
7476;DHT22;3779;49.216;8.650;2023-01-10T03:37:43;19.40;41.10
7476;DHT22;3779;49.216;8.650;2023-01-10T03:40:42;19.30;41.60
7476;DHT22;3779;49.216;8.650;2023-01-10T03:43:46;19.30;41.10
7476;DHT22;3779;49.216;8.650;2023-01-10T03:47:03;19.40;43.00
7476;DHT22;3779;49.216;8.650;2023-01-10T03:50:09;19.30;38.60
7476;DHT22;3779;49.216;8.650;2023-01-10T03:52:56;19.30;41.90
7476;DHT22;3779;49.216;8.650;2023-01-10T03:55:43;19.40;40.60
7476;DHT22;3779;49.216;8.650;2023-01-10T03:58:29;19.30;38.40
7476;DHT22;3779;49.216;8.650;2023-01-10T04:01:15;19.30;39.60
7476;DHT22;3779;49.216;8.650;2023-01-10T04:04:02;19.30;39.70
7476;DHT22;3779;49.216;8.650;2023-01-10T04:06:48;19.30;40.30
7476;DHT22;3779;49.216;8.650;2023-01-10T04:09:34;19.30;40.10
7476;DHT22;3779;49.216;8.650;2023-01-10T04:12:20;19.20;38.50
7476;DHT22;3779;49.216;8.650;2023-01-10T04:15:07;19.20;40.60
7476;DHT22;3779;49.216;8.650;2023-01-10T04:17:53;19.30;41.10
7476;DHT22;3779;49.216;8.650;2023-01-10T04:20:39;19.00;40.30
7476;DHT22;3779;49.216;8.650;2023-01-10T04:23:25;19.30;40.30
7476;DHT22;3779;49.216;8.650;2023-01-10T04:26:11;19.30;39.50
7476;DHT22;3779;49.216;8.650;2023-01-10T04:28:56;19.30;40.50
7476;DHT22;3779;49.216;8.650;2023-01-10T04:31:42;19.30;39.60
7476;DHT22;3779;49.216;8.650;2023-01-10T04:34:28;19.30;39.80
7476;DHT22;3779;49.216;8.650;2023-01-10T04:37:14;19.30;39.60
7476;DHT22;3779;49.216;8.650;2023-01-10T04:40:00;19.20;39.90
7476;DHT22;3779;49.216;8.650;2023-01-10T04:42:45;19.20;39.90
7476;DHT22;3779;49.216;8.650;2023-01-10T04:45:31;19.20;40.20
7476;DHT22;3779;49.216;8.650;2023-01-10T04:48:17;19.20;40.40
7476;DHT22;3779;49.216;8.650;2023-01-10T04:51:04;19.30;39.80
7476;DHT22;3779;49.216;8.650;2023-01-10T04:53:50;19.30;40.90
7476;DHT22;3779;49.216;8.650;2023-01-10T04:56:36;19.30;40.30
7476;DHT22;3779;49.216;8.650;2023-01-10T04:59:21;19.30;41.00
7476;DHT22;3779;49.216;8.650;2023-01-10T05:02:07;19.30;40.10
7476;DHT22;3779;49.216;8.650;2023-01-10T05:04:53;19.30;40.80
7476;DHT22;3779;49.216;8.650;2023-01-10T05:07:39;19.50;41.40
7476;DHT22;3779;49.216;8.650;2023-01-10T05:10:25;19.40;40.50
7476;DHT22;3779;49.216;8.650;2023-01-10T05:13:11;19.40;40.00
7476;DHT22;3779;49.216;8.650;2023-01-10T05:15:57;19.40;40.50
7476;DHT22;3779;49.216;8.650;2023-01-10T05:18:43;19.50;40.20
7476;DHT22;3779;49.216;8.650;2023-01-10T05:21:29;19.40;40.60
7476;DHT22;3779;49.216;8.650;2023-01-10T05:24:15;19.30;39.50
7476;DHT22;3779;49.216;8.650;2023-01-10T05:27:01;19.30;38.90
7476;DHT22;3779;49.216;8.650;2023-01-10T05:29:47;19.30;39.80
7476;DHT22;3779;49.216;8.650;2023-01-10T05:32:33;19.40;40.60
7476;DHT22;3779;49.216;8.650;2023-01-10T05:35:18;19.60;41.30
7476;DHT22;3779;49.216;8.650;2023-01-10T05:38:04;19.30;38.50
7476;DHT22;3779;49.216;8.650;2023-01-10T05:40:54;19.30;40.20
7476;DHT22;3779;49.216;8.650;2023-01-10T05:43:41;19.30;40.40
7476;DHT22;3779;49.216;8.650;2023-01-10T05:46:27;19.40;42.30
7476;DHT22;3779;49.216;8.650;2023-01-10T05:49:12;19.50;40.60
7476;DHT22;3779;49.216;8.650;2023-01-10T05:51:58;19.50;40.30
7476;DHT22;3779;49.216;8.650;2023-01-10T05:54:44;19.40;39.80
7476;DHT22;3779;49.216;8.650;2023-01-10T05:57:30;19.40;39.50
7476;DHT22;3779;49.216;8.650;2023-01-10T06:00:16;19.40;40.20
7476;DHT22;3779;49.216;8.650;2023-01-10T06:03:02;19.30;38.30
7476;DHT22;3779;49.216;8.650;2023-01-10T06:05:48;19.20;39.40
7476;DHT22;3779;49.216;8.650;2023-01-10T06:08:35;19.30;41.50
7476;DHT22;3779;49.216;8.650;2023-01-10T06:11:21;19.30;41.70
7476;DHT22;3779;49.216;8.650;2023-01-10T06:14:13;19.30;40.20
7476;DHT22;3779;49.216;8.650;2023-01-10T06:17:03;19.30;40.40
7476;DHT22;3779;49.216;8.650;2023-01-10T06:19:54;19.30;38.30
7476;DHT22;3779;49.216;8.650;2023-01-10T06:22:41;19.30;39.90
7476;DHT22;3779;49.216;8.650;2023-01-10T06:25:27;19.30;39.80
7476;DHT22;3779;49.216;8.650;2023-01-10T06:28:14;19.30;40.10
7476;DHT22;3779;49.216;8.650;2023-01-10T06:30:59;19.40;39.70
7476;DHT22;3779;49.216;8.650;2023-01-10T06:33:45;19.30;39.60
7476;DHT22;3779;49.216;8.650;2023-01-10T06:36:34;19.30;40.30
7476;DHT22;3779;49.216;8.650;2023-01-10T06:39:20;19.30;39.30
7476;DHT22;3779;49.216;8.650;2023-01-10T06:42:06;19.30;39.50
7476;DHT22;3779;49.216;8.650;2023-01-10T06:44:51;19.20;37.50
7476;DHT22;3779;49.216;8.650;2023-01-10T06:47:37;19.20;39.50
7476;DHT22;3779;49.216;8.650;2023-01-10T06:50:24;19.20;39.50
7476;DHT22;3779;49.216;8.650;2023-01-10T06:53:10;19.20;40.00
7476;DHT22;3779;49.216;8.650;2023-01-10T06:55:56;19.20;38.90
7476;DHT22;3779;49.216;8.650;2023-01-10T06:58:42;19.20;39.70
7476;DHT22;3779;49.216;8.650;2023-01-10T07:01:28;19.20;39.10
7476;DHT22;3779;49.216;8.650;2023-01-10T07:04:14;19.30;40.20
7476;DHT22;3779;49.216;8.650;2023-01-10T07:06:59;19.30;40.30
7476;DHT22;3779;49.216;8.650;2023-01-10T07:09:45;19.40;40.20
7476;DHT22;3779;49.216;8.650;2023-01-10T07:12:31;19.40;39.60
7476;DHT22;3779;49.216;8.650;2023-01-10T07:15:17;19.40;39.20
7476;DHT22;3779;49.216;8.650;2023-01-10T07:18:03;19.40;39.40
7476;DHT22;3779;49.216;8.650;2023-01-10T07:20:49;19.50;39.40
7476;DHT22;3779;49.216;8.650;2023-01-10T07:23:35;19.30;39.50
7476;DHT22;3779;49.216;8.650;2023-01-10T07:26:21;19.30;39.00
7476;DHT22;3779;49.216;8.650;2023-01-10T07:29:08;19.30;39.40
7476;DHT22;3779;49.216;8.650;2023-01-10T07:31:54;19.40;39.30
7476;DHT22;3779;49.216;8.650;2023-01-10T07:34:40;19.30;39.20
7476;DHT22;3779;49.216;8.650;2023-01-10T07:37:26;19.30;40.20
7476;DHT22;3779;49.216;8.650;2023-01-10T07:40:12;19.30;40.20
7476;DHT22;3779;49.216;8.650;2023-01-10T07:42:59;19.30;39.70
7476;DHT22;3779;49.216;8.650;2023-01-10T07:45:46;19.40;40.70
7476;DHT22;3779;49.216;8.650;2023-01-10T07:48:31;19.40;39.50
7476;DHT22;3779;49.216;8.650;2023-01-10T07:51:17;19.40;40.20
7476;DHT22;3779;49.216;8.650;2023-01-10T07:54:03;19.30;39.30
7476;DHT22;3779;49.216;8.650;2023-01-10T07:56:49;19.40;39.50
7476;DHT22;3779;49.216;8.650;2023-01-10T07:59:35;19.30;38.00
7476;DHT22;3779;49.216;8.650;2023-01-10T08:02:21;19.30;40.00
7476;DHT22;3779;49.216;8.650;2023-01-10T08:05:07;19.30;39.00
7476;DHT22;3779;49.216;8.650;2023-01-10T08:07:53;19.30;40.60
7476;DHT22;3779;49.216;8.650;2023-01-10T08:10:40;19.40;40.70
7476;DHT22;3779;49.216;8.650;2023-01-10T08:13:27;19.40;40.30
7476;DHT22;3779;49.216;8.650;2023-01-10T08:16:13;19.40;41.10
7476;DHT22;3779;49.216;8.650;2023-01-10T08:19:00;19.50;40.00
7476;DHT22;3779;49.216;8.650;2023-01-10T08:21:45;19.50;39.80
7476;DHT22;3779;49.216;8.650;2023-01-10T08:24:31;19.40;37.80
7476;DHT22;3779;49.216;8.650;2023-01-10T08:27:17;19.40;40.00
7476;DHT22;3779;49.216;8.650;2023-01-10T08:30:04;19.40;39.50
7476;DHT22;3779;49.216;8.650;2023-01-10T08:32:50;19.40;39.70
7476;DHT22;3779;49.216;8.650;2023-01-10T08:35:38;19.40;38.80
7476;DHT22;3779;49.216;8.650;2023-01-10T08:38:24;19.40;38.80
7476;DHT22;3779;49.216;8.650;2023-01-10T08:41:11;19.40;38.90
7476;DHT22;3779;49.216;8.650;2023-01-10T08:43:58;19.40;40.10
7476;DHT22;3779;49.216;8.650;2023-01-10T08:46:44;19.50;39.50
7476;DHT22;3779;49.216;8.650;2023-01-10T08:49:30;19.50;39.20
7476;DHT22;3779;49.216;8.650;2023-01-10T08:52:16;19.50;39.40
7476;DHT22;3779;49.216;8.650;2023-01-10T08:55:02;19.50;39.40
7476;DHT22;3779;49.216;8.650;2023-01-10T08:57:48;19.50;39.60
7476;DHT22;3779;49.216;8.650;2023-01-10T09:00:34;19.50;39.10
7476;DHT22;3779;49.216;8.650;2023-01-10T09:03:20;19.50;39.70
7476;DHT22;3779;49.216;8.650;2023-01-10T09:06:06;19.40;38.10
7476;DHT22;3779;49.216;8.650;2023-01-10T09:08:52;19.40;39.90
7476;DHT22;3779;49.216;8.650;2023-01-10T09:11:39;19.40;40.20
7476;DHT22;3779;49.216;8.650;2023-01-10T09:14:26;19.50;40.50
7476;DHT22;3779;49.216;8.650;2023-01-10T09:17:12;19.50;40.40
7476;DHT22;3779;49.216;8.650;2023-01-10T09:19:58;19.60;40.40
7476;DHT22;3779;49.216;8.650;2023-01-10T09:22:44;19.60;40.50
7476;DHT22;3779;49.216;8.650;2023-01-10T09:25:30;19.60;40.40
7476;DHT22;3779;49.216;8.650;2023-01-10T09:28:16;19.60;40.70
7476;DHT22;3779;49.216;8.650;2023-01-10T09:31:02;19.50;40.20
7476;DHT22;3779;49.216;8.650;2023-01-10T09:33:48;19.50;40.00
7476;DHT22;3779;49.216;8.650;2023-01-10T09:36:34;19.50;40.40
7476;DHT22;3779;49.216;8.650;2023-01-10T09:39:20;19.40;39.90
7476;DHT22;3779;49.216;8.650;2023-01-10T09:48:54;19.50;41.00
7476;DHT22;3779;49.216;8.650;2023-01-10T09:51:43;19.50;40.90
7476;DHT22;3779;49.216;8.650;2023-01-10T09:54:35;19.50;40.70
7476;DHT22;3779;49.216;8.650;2023-01-10T09:57:23;19.50;40.80
7476;DHT22;3779;49.216;8.650;2023-01-10T10:00:19;19.50;41.60
7476;DHT22;3779;49.216;8.650;2023-01-10T10:03:18;19.50;40.60
7476;DHT22;3779;49.216;8.650;2023-01-10T10:06:10;19.50;40.40
7476;DHT22;3779;49.216;8.650;2023-01-10T10:08:56;19.50;40.10
7476;DHT22;3779;49.216;8.650;2023-01-10T10:12:03;19.50;40.50
7476;DHT22;3779;49.216;8.650;2023-01-10T10:18:15;19.40;42.20
7476;DHT22;3779;49.216;8.650;2023-01-10T10:21:15;19.50;40.60
7476;DHT22;3779;49.216;8.650;2023-01-10T10:33:57;19.40;40.70
7476;DHT22;3779;49.216;8.650;2023-01-10T10:36:53;19.40;41.30
7476;DHT22;3779;49.216;8.650;2023-01-10T10:39:46;19.30;38.90
7476;DHT22;3779;49.216;8.650;2023-01-10T10:42:38;19.30;40.60
7476;DHT22;3779;49.216;8.650;2023-01-10T10:45:46;19.40;40.50
7476;DHT22;3779;49.216;8.650;2023-01-10T10:48:44;19.40;39.90
7476;DHT22;3779;49.216;8.650;2023-01-10T10:51:51;19.40;40.40
7476;DHT22;3779;49.216;8.650;2023-01-10T10:54:37;19.50;44.80
7476;DHT22;3779;49.216;8.650;2023-01-10T10:57:28;19.60;42.90
7476;DHT22;3779;49.216;8.650;2023-01-10T11:00:17;19.60;38.80
7476;DHT22;3779;49.216;8.650;2023-01-10T11:03:39;19.50;39.40
7476;DHT22;3779;49.216;8.650;2023-01-10T11:06:29;19.50;41.30
7476;DHT22;3779;49.216;8.650;2023-01-10T11:09:21;19.50;39.60
7476;DHT22;3779;49.216;8.650;2023-01-10T11:12:16;19.50;39.20
7476;DHT22;3779;49.216;8.650;2023-01-10T11:15:03;19.40;39.30
7476;DHT22;3779;49.216;8.650;2023-01-10T11:18:10;19.40;39.40
7476;DHT22;3779;49.216;8.650;2023-01-10T11:21:13;19.60;36.70
7476;DHT22;3779;49.216;8.650;2023-01-10T11:24:00;19.60;36.20
7476;DHT22;3779;49.216;8.650;2023-01-10T11:26:48;19.50;38.80
7476;DHT22;3779;49.216;8.650;2023-01-10T11:29:41;19.40;40.60
7476;DHT22;3779;49.216;8.650;2023-01-10T11:32:52;19.40;37.70
7476;DHT22;3779;49.216;8.650;2023-01-10T11:35:39;19.30;38.10
7476;DHT22;3779;49.216;8.650;2023-01-10T11:38:26;19.30;38.80
7476;DHT22;3779;49.216;8.650;2023-01-10T11:44:25;19.20;38.30
7476;DHT22;3779;49.216;8.650;2023-01-10T11:47:11;19.10;39.20
7476;DHT22;3779;49.216;8.650;2023-01-10T11:49:59;19.20;39.90
7476;DHT22;3779;49.216;8.650;2023-01-10T11:52:47;19.30;39.30
7476;DHT22;3779;49.216;8.650;2023-01-10T11:55:36;19.30;39.30
7476;DHT22;3779;49.216;8.650;2023-01-10T11:58:22;19.30;42.40
7476;DHT22;3779;49.216;8.650;2023-01-10T12:01:27;19.60;42.30
7476;DHT22;3779;49.216;8.650;2023-01-10T12:04:18;19.60;42.10
7476;DHT22;3779;49.216;8.650;2023-01-10T12:07:08;19.70;40.90
7476;DHT22;3779;49.216;8.650;2023-01-10T12:09:56;19.90;35.90
7476;DHT22;3779;49.216;8.650;2023-01-10T12:13:13;19.80;35.10
7476;DHT22;3779;49.216;8.650;2023-01-10T12:16:17;19.70;39.70
7476;DHT22;3779;49.216;8.650;2023-01-10T12:19:06;19.30;41.50
7476;DHT22;3779;49.216;8.650;2023-01-10T12:22:00;19.30;39.50
7476;DHT22;3779;49.216;8.650;2023-01-10T12:24:49;19.40;40.90
7476;DHT22;3779;49.216;8.650;2023-01-10T12:27:36;19.50;41.40
7476;DHT22;3779;49.216;8.650;2023-01-10T12:30:33;19.60;40.00
7476;DHT22;3779;49.216;8.650;2023-01-10T12:33:29;19.60;38.60
7476;DHT22;3779;49.216;8.650;2023-01-10T12:36:43;19.60;38.50
7476;DHT22;3779;49.216;8.650;2023-01-10T12:39:33;19.60;38.70
7476;DHT22;3779;49.216;8.650;2023-01-10T12:45:41;19.50;38.00
7476;DHT22;3779;49.216;8.650;2023-01-10T12:51:25;19.40;40.10
7476;DHT22;3779;49.216;8.650;2023-01-10T12:54:15;19.50;38.30
7476;DHT22;3779;49.216;8.650;2023-01-10T12:57:13;19.50;39.10
7476;DHT22;3779;49.216;8.650;2023-01-10T13:00:02;19.50;38.50
7476;DHT22;3779;49.216;8.650;2023-01-10T13:02:55;19.60;38.70
7476;DHT22;3779;49.216;8.650;2023-01-10T13:05:43;19.60;39.00
7476;DHT22;3779;49.216;8.650;2023-01-10T13:08:34;19.50;37.90
7476;DHT22;3779;49.216;8.650;2023-01-10T13:11:22;19.60;39.60
7476;DHT22;3779;49.216;8.650;2023-01-10T13:14:13;19.60;39.00
7476;DHT22;3779;49.216;8.650;2023-01-10T13:23:27;19.70;38.40
7476;DHT22;3779;49.216;8.650;2023-01-10T13:26:14;19.60;38.60
7476;DHT22;3779;49.216;8.650;2023-01-10T13:29:00;19.60;37.90
7476;DHT22;3779;49.216;8.650;2023-01-10T13:31:48;19.60;38.20
7476;DHT22;3779;49.216;8.650;2023-01-10T13:34:41;19.60;38.20
7476;DHT22;3779;49.216;8.650;2023-01-10T13:37:34;19.60;39.50
7476;DHT22;3779;49.216;8.650;2023-01-10T13:40:27;19.40;36.50
7476;DHT22;3779;49.216;8.650;2023-01-10T13:52:47;19.50;39.80
7476;DHT22;3779;49.216;8.650;2023-01-10T14:01:35;19.60;38.40
7476;DHT22;3779;49.216;8.650;2023-01-10T14:04:55;19.70;39.10
7476;DHT22;3779;49.216;8.650;2023-01-10T14:07:48;19.70;39.80
7476;DHT22;3779;49.216;8.650;2023-01-10T14:10:34;19.60;36.50
7476;DHT22;3779;49.216;8.650;2023-01-10T14:13:21;19.50;38.70
7476;DHT22;3779;49.216;8.650;2023-01-10T14:16:32;19.60;38.70
7476;DHT22;3779;49.216;8.650;2023-01-10T14:19:27;19.60;40.20
7476;DHT22;3779;49.216;8.650;2023-01-10T14:22:35;19.70;39.20
7476;DHT22;3779;49.216;8.650;2023-01-10T14:25:22;19.70;38.40
7476;DHT22;3779;49.216;8.650;2023-01-10T14:28:20;19.70;38.70
7476;DHT22;3779;49.216;8.650;2023-01-10T14:31:12;19.80;38.10
7476;DHT22;3779;49.216;8.650;2023-01-10T14:34:00;19.80;37.80
7476;DHT22;3779;49.216;8.650;2023-01-10T14:37:08;19.80;38.10
7476;DHT22;3779;49.216;8.650;2023-01-10T14:39:59;19.50;37.60
7476;DHT22;3779;49.216;8.650;2023-01-10T14:42:47;19.70;37.30
7476;DHT22;3779;49.216;8.650;2023-01-10T14:45:39;19.70;37.10
7476;DHT22;3779;49.216;8.650;2023-01-10T14:48:34;19.70;36.20
7476;DHT22;3779;49.216;8.650;2023-01-10T14:51:25;19.70;39.00
7476;DHT22;3779;49.216;8.650;2023-01-10T14:54:13;19.80;37.10
7476;DHT22;3779;49.216;8.650;2023-01-10T14:56:59;19.80;37.00
7476;DHT22;3779;49.216;8.650;2023-01-10T14:59:45;19.60;34.70
7476;DHT22;3779;49.216;8.650;2023-01-10T15:02:31;19.50;40.80
7476;DHT22;3779;49.216;8.650;2023-01-10T15:08:28;19.70;38.30
7476;DHT22;3779;49.216;8.650;2023-01-10T15:11:15;19.80;39.60
7476;DHT22;3779;49.216;8.650;2023-01-10T15:14:04;20.00;39.70
7476;DHT22;3779;49.216;8.650;2023-01-10T15:16:58;19.80;39.30
7476;DHT22;3779;49.216;8.650;2023-01-10T15:19:50;19.80;38.10
7476;DHT22;3779;49.216;8.650;2023-01-10T15:22:36;19.80;38.00
7476;DHT22;3779;49.216;8.650;2023-01-10T15:25:34;19.90;38.40
7476;DHT22;3779;49.216;8.650;2023-01-10T15:28:22;19.80;39.40
7476;DHT22;3779;49.216;8.650;2023-01-10T15:31:08;19.80;36.50
7476;DHT22;3779;49.216;8.650;2023-01-10T15:33:57;19.80;36.30
7476;DHT22;3779;49.216;8.650;2023-01-10T15:36:47;19.70;36.80
7476;DHT22;3779;49.216;8.650;2023-01-10T15:39:36;19.70;37.00
7476;DHT22;3779;49.216;8.650;2023-01-10T15:42:23;19.70;36.90
7476;DHT22;3779;49.216;8.650;2023-01-10T15:45:27;19.80;37.90
7476;DHT22;3779;49.216;8.650;2023-01-10T15:48:38;19.70;37.00
7476;DHT22;3779;49.216;8.650;2023-01-10T15:51:31;19.50;37.00
7476;DHT22;3779;49.216;8.650;2023-01-10T16:00:30;19.50;37.80
7476;DHT22;3779;49.216;8.650;2023-01-10T16:03:38;19.60;37.80
7476;DHT22;3779;49.216;8.650;2023-01-10T16:06:33;19.70;39.10
7476;DHT22;3779;49.216;8.650;2023-01-10T16:09:20;19.70;38.70
7476;DHT22;3779;49.216;8.650;2023-01-10T16:12:26;19.70;37.80
7476;DHT22;3779;49.216;8.650;2023-01-10T16:15:34;19.70;37.90
7476;DHT22;3779;49.216;8.650;2023-01-10T16:18:20;19.70;37.70
7476;DHT22;3779;49.216;8.650;2023-01-10T16:21:06;19.70;36.60
7476;DHT22;3779;49.216;8.650;2023-01-10T16:23:55;19.60;35.90
7476;DHT22;3779;49.216;8.650;2023-01-10T16:26:41;19.60;36.60
7476;DHT22;3779;49.216;8.650;2023-01-10T16:29:27;19.60;38.20
7476;DHT22;3779;49.216;8.650;2023-01-10T16:32:14;19.70;39.30
7476;DHT22;3779;49.216;8.650;2023-01-10T16:35:00;19.80;38.20
7476;DHT22;3779;49.216;8.650;2023-01-10T16:37:47;19.80;38.50
7476;DHT22;3779;49.216;8.650;2023-01-10T16:40:36;19.80;36.90
7476;DHT22;3779;49.216;8.650;2023-01-10T16:43:24;19.70;36.30
7476;DHT22;3779;49.216;8.650;2023-01-10T16:46:13;19.70;34.10
7476;DHT22;3779;49.216;8.650;2023-01-10T16:48:59;19.60;36.90
7476;DHT22;3779;49.216;8.650;2023-01-10T16:51:46;19.60;36.00
7476;DHT22;3779;49.216;8.650;2023-01-10T16:54:32;19.60;36.60
7476;DHT22;3779;49.216;8.650;2023-01-10T16:57:20;19.70;35.50
7476;DHT22;3779;49.216;8.650;2023-01-10T17:00:08;19.60;36.20
7476;DHT22;3779;49.216;8.650;2023-01-10T17:02:56;19.70;36.40
7476;DHT22;3779;49.216;8.650;2023-01-10T17:05:43;19.70;35.80
7476;DHT22;3779;49.216;8.650;2023-01-10T17:08:29;19.80;34.10
7476;DHT22;3779;49.216;8.650;2023-01-10T17:11:41;19.50;40.70
7476;DHT22;3779;49.216;8.650;2023-01-10T17:14:31;19.60;39.30
7476;DHT22;3779;49.216;8.650;2023-01-10T17:17:18;19.70;37.40
7476;DHT22;3779;49.216;8.650;2023-01-10T17:20:04;19.70;36.70
7476;DHT22;3779;49.216;8.650;2023-01-10T17:22:50;19.70;35.80
7476;DHT22;3779;49.216;8.650;2023-01-10T17:25:36;19.70;35.70
7476;DHT22;3779;49.216;8.650;2023-01-10T17:28:22;19.70;36.00
7476;DHT22;3779;49.216;8.650;2023-01-10T17:31:08;19.70;37.90
7476;DHT22;3779;49.216;8.650;2023-01-10T17:33:54;19.70;38.10
7476;DHT22;3779;49.216;8.650;2023-01-10T17:36:40;19.60;35.20
7476;DHT22;3779;49.216;8.650;2023-01-10T17:39:27;19.50;33.90
7476;DHT22;3779;49.216;8.650;2023-01-10T17:42:13;19.50;34.60
7476;DHT22;3779;49.216;8.650;2023-01-10T17:44:58;19.50;34.70
7476;DHT22;3779;49.216;8.650;2023-01-10T17:47:44;19.50;35.00
7476;DHT22;3779;49.216;8.650;2023-01-10T17:50:31;19.50;34.40
7476;DHT22;3779;49.216;8.650;2023-01-10T17:53:17;19.50;33.80
7476;DHT22;3779;49.216;8.650;2023-01-10T17:56:05;19.50;34.80
7476;DHT22;3779;49.216;8.650;2023-01-10T17:58:51;19.50;34.70
7476;DHT22;3779;49.216;8.650;2023-01-10T18:01:37;19.50;34.60
7476;DHT22;3779;49.216;8.650;2023-01-10T18:04:23;19.50;35.20
7476;DHT22;3779;49.216;8.650;2023-01-10T18:07:09;19.50;35.70
7476;DHT22;3779;49.216;8.650;2023-01-10T18:09:56;19.50;34.20
7476;DHT22;3779;49.216;8.650;2023-01-10T18:12:42;19.50;35.20
7476;DHT22;3779;49.216;8.650;2023-01-10T18:15:28;19.40;33.00
7476;DHT22;3779;49.216;8.650;2023-01-10T18:18:15;19.30;35.10
7476;DHT22;3779;49.216;8.650;2023-01-10T18:21:01;19.40;35.20
7476;DHT22;3779;49.216;8.650;2023-01-10T18:23:53;19.40;34.80
7476;DHT22;3779;49.216;8.650;2023-01-10T18:26:41;19.40;34.40
7476;DHT22;3779;49.216;8.650;2023-01-10T18:29:27;19.40;33.20
7476;DHT22;3779;49.216;8.650;2023-01-10T18:32:13;19.30;34.30
7476;DHT22;3779;49.216;8.650;2023-01-10T18:34:59;19.40;34.30
7476;DHT22;3779;49.216;8.650;2023-01-10T18:37:45;19.60;35.80
7476;DHT22;3779;49.216;8.650;2023-01-10T18:40:31;19.40;34.00
7476;DHT22;3779;49.216;8.650;2023-01-10T18:43:17;19.40;34.80
7476;DHT22;3779;49.216;8.650;2023-01-10T18:46:06;19.40;35.90
7476;DHT22;3779;49.216;8.650;2023-01-10T18:48:52;19.50;35.60
7476;DHT22;3779;49.216;8.650;2023-01-10T18:51:38;19.30;32.30
7476;DHT22;3779;49.216;8.650;2023-01-10T18:54:24;19.20;35.90
7476;DHT22;3779;49.216;8.650;2023-01-10T18:57:12;19.40;34.60
7476;DHT22;3779;49.216;8.650;2023-01-10T18:59:58;19.30;33.70
7476;DHT22;3779;49.216;8.650;2023-01-10T19:02:44;19.30;34.00
7476;DHT22;3779;49.216;8.650;2023-01-10T19:05:30;19.30;33.60
7476;DHT22;3779;49.216;8.650;2023-01-10T19:08:16;19.30;33.50
7476;DHT22;3779;49.216;8.650;2023-01-10T19:11:03;19.30;33.40
7476;DHT22;3779;49.216;8.650;2023-01-10T19:13:51;19.30;34.70
7476;DHT22;3779;49.216;8.650;2023-01-10T19:16:38;19.30;33.40
7476;DHT22;3779;49.216;8.650;2023-01-10T19:19:24;19.30;33.80
7476;DHT22;3779;49.216;8.650;2023-01-10T19:22:10;19.20;32.90
7476;DHT22;3779;49.216;8.650;2023-01-10T19:24:56;19.20;33.40
7476;DHT22;3779;49.216;8.650;2023-01-10T19:27:42;18.90;33.40
7476;DHT22;3779;49.216;8.650;2023-01-10T19:30:28;19.20;34.50
7476;DHT22;3779;49.216;8.650;2023-01-10T19:33:14;19.20;33.50
7476;DHT22;3779;49.216;8.650;2023-01-10T19:36:06;19.30;34.50
7476;DHT22;3779;49.216;8.650;2023-01-10T19:38:56;19.30;34.60
7476;DHT22;3779;49.216;8.650;2023-01-10T19:41:42;19.40;35.80
7476;DHT22;3779;49.216;8.650;2023-01-10T19:44:28;19.40;34.00
7476;DHT22;3779;49.216;8.650;2023-01-10T19:47:14;19.50;33.60
7476;DHT22;3779;49.216;8.650;2023-01-10T19:50:00;19.30;33.70
7476;DHT22;3779;49.216;8.650;2023-01-10T19:52:46;19.20;32.80
7476;DHT22;3779;49.216;8.650;2023-01-10T19:55:34;19.20;34.30
7476;DHT22;3779;49.216;8.650;2023-01-10T19:58:20;19.20;33.00
7476;DHT22;3779;49.216;8.650;2023-01-10T20:01:20;19.20;34.50
7476;DHT22;3779;49.216;8.650;2023-01-10T20:04:06;19.20;33.60